Nearby METAR Reports

 

EHAM - Amsterdam/Schiph, Netherlands
Distance from station: WNW 24km
Updated: 17/01/2018 18:25
Partly cloudy
Partly cloudy
 Wind from W
Wind: W 37 km/h
Temperature: 6°C
Wind Chill: 1°C
Dew Point: 1°C
Humidity: 71%
Barometer: 1004 hPa
Clouds: Partly cloudy
Visibility: 10 km
Cloud details: Few Clouds 853 m
Partly cloudy 1067 m
2018/01/17 17:25 EHAM 171725Z 27020KT 9999 FEW028 SCT035 06/01 Q1004 NOSIG
EHDL - Deelen Rnlafb, Netherlands
Distance from station: ESE 55km
Updated: 17/01/2018 18:25
Overcast
Overcast
 Wind from WSW
Wind: WSW 20 km/h, Gust: 39 km/h
Temperature: 5°C
Wind Chill: 1°C
Dew Point: 1°C
Humidity: 76%
Barometer: 1004 hPa
Clouds: Overcast
Visibility: 10 km
Cloud details: Few Clouds 792 m
Mostly cloudy 914 m
Overcast 1067 m
2018/01/17 17:25 EHDL 171725Z AUTO 25011G21KT 200V300 9999 FEW026 BKN030 OVC035 05/01 Q1004 BLU
EHRD - Rotterdam Airpor, Netherlands
Distance from station: SW 55km
Updated: 17/01/2018 18:25
Mostly cloudy
Mostly cloudy
 Wind from W
Wind: W 26 km/h
Temperature: 6°C
Wind Chill: 2°C
Dew Point: 1°C
Humidity: 71%
Barometer: 1005 hPa
Clouds: Mostly cloudy
Visibility: 10 km
Cloud details: Partly cloudy 884 m
Mostly cloudy 1006 m
Mostly cloudy 1372 m
2018/01/17 17:25 EHRD 171725Z AUTO 26014KT 220V300 9999 SCT029 BKN033 BKN045 06/01 Q1005 NOSIG
 
EHGR - Gilze-Rijen Rnla, Netherlands
Distance from station: S 75km
Updated: 17/01/2018 18:25
Mostly cloudy
Mostly cloudy
 Wind from WSW
Wind: WSW 17 km/h
Temperature: 6°C
Wind Chill: 3°C
Dew Point: 0°C
Humidity: 66%
Barometer: 1006 hPa
Clouds: Mostly cloudy
Visibility: 10 km
Cloud details: Few Clouds 884 m
Partly cloudy 1006 m
Mostly cloudy 1158 m
2018/01/17 17:25 EHGR 171725Z AUTO 24009KT 220V020 9999 FEW029 SCT033 BKN038 06/00 Q1006 BLU 26014KT 9999 SCT025 BKN040
EHVK - Volkel Rnlafb, Netherlands
Distance from station: SSE 78km
Updated: 17/01/2018 18:25
Mostly cloudy
Mostly cloudy
 Wind from WSW
Wind: WSW 22 km/h
Temperature: 5°C
Wind Chill: 1°C
Dew Point: 0°C
Humidity: 70%
Barometer: 1006 hPa
Clouds: Mostly cloudy
Visibility: 10 km
Cloud details: Few Clouds 1158 m
Partly cloudy 1402 m
Mostly cloudy 1524 m
2018/01/17 17:25 EHVK 171725Z AUTO 25012KT 9999 FEW038 SCT046 BKN050 05/00 Q1006 BLU 26015G25KT 9999 SCT035 SCT060
EHKD - De Kooy (navy), Netherlands
Distance from station: NNW 80km
Updated: 17/01/2018 18:32
Overcast
Overcast
 Wind from W
Wind: W 39 km/h
Temperature: 6°C
Wind Chill: 1°C
Dew Point: 1°C
Humidity: 71%
Barometer: 1002 hPa
Clouds: Overcast
Visibility: 10 km
Cloud details: Partly cloudy 792 m
Mostly cloudy 945 m
Overcast 1097 m
2018/01/17 17:32 EHKD 171732Z AUTO 28021KT 250V310 9999 SCT026 BKN031 OVC036 06/01 Q1002 BLU 28023G35KT 9999 SCT020 SCT028
 
EHEH - Eindhoven Rnlafb, Netherlands
Distance from station: SSE 89km
Updated: 17/01/2018 18:25
Overcast
Overcast
 Wind from WSW
Wind: WSW 26 km/h
Temperature: 5°C
Wind Chill: 1°C
Dew Point: 1°C
Humidity: 76%
Barometer: 1007 hPa
Clouds: Overcast
Visibility: 10 km
Cloud details: Few Clouds 1219 m
Mostly cloudy 1554 m
Overcast 1707 m
2018/01/17 17:25 EHEH 171725Z AUTO 25014KT 220V290 9999 FEW040 BKN051 OVC056 05/01 Q1007 BLU 25012G22KT 9999 FEW025 SCT035 BKN045
EDLV - Niederrhein, Germany
Distance from station: SE 100km
Updated: 17/01/2018 18:20
Mostly cloudy
Mostly cloudy
 Wind from W
Wind: W 30 km/h
Temperature: 5°C
Wind Chill: 0°C
Dew Point: 1°C
Humidity: 76%
Barometer: 1005 hPa
Clouds: Mostly cloudy
Visibility: 10 km
Cloud details: Mostly cloudy 2134 m
2018/01/17 17:20 EDLV 171720Z 26016KT 9999 BKN070TCU 05/01 Q1005
EHQE - Hoorn-A Sea, Netherlands
Distance from station: NW 100km
Updated: 17/01/2018 18:25
Mostly cloudy
Mostly cloudy
 Wind from W
Wind: W 80 km/h
Temperature: 7°C
Wind Chill: 1°C
Dew Point: 1°C
Humidity: 66%
Barometer: 1001 hPa
Clouds: Mostly cloudy
Visibility: 10 km
Cloud details: Few Clouds 732 m
Mostly cloudy 853 m
Mostly cloudy 945 m
2018/01/17 17:25 EHQE 171725Z AUTO 28043KT 9999 FEW024 BKN028 BKN031 07/01 Q1001 W///H///
 
EHWO - Woensdrecht Rnla, Netherlands
Distance from station: SSW 103km
Updated: 17/01/2018 18:25
Overcast
Overcast
 Wind from WSW
Wind: WSW 22 km/h
Temperature: 6°C
Wind Chill: 2°C
Dew Point: 2°C
Humidity: 76%
Barometer: 1007 hPa
Clouds: Overcast
Visibility: 10 km
Cloud details: Partly cloudy 1128 m
Mostly cloudy 1280 m
Overcast 1402 m
2018/01/17 17:25 EHWO 171725Z AUTO 25012KT 210V280 9999 SCT037 BKN042 OVC046 06/02 Q1007 BLU
EHSC - Goeree Le Sea, Netherlands
Distance from station: WSW 104km
Updated: 17/01/2018 18:25

 Wind from W
Wind: W 57 km/h
Temperature: 7°C
Wind Chill: 1°C
Dew Point: 1°C
Humidity: 66%
Barometer: 1005 hPa
Visibility: 10 km
2018/01/17 17:25 EHSC 171725Z AUTO 28031KT 9999 ///////// 07/01 Q1005 W07/H32
EHVL - Vlieland Island, Netherlands
Distance from station: N 112km
Updated: 17/01/2018 18:27
Haze, Few clouds
Haze, Few clouds
 Wind from W
Wind: W 59 km/h
Temperature: 6°C
Wind Chill: 0°C
Dew Point: 2°C
Humidity: 76%
Barometer: 1000 hPa
Summary: Haze
Clouds: Few Clouds
Visibility: 8 km
Cloud details: Few Clouds 488 m
2018/01/17 17:27 EHVL 171727Z AUTO 28032KT 8000 HZ FEW016CB 06/02 Q1000 BLU
 
EHLW - Leeuwarden Rnlaf, Netherlands
Distance from station: NNE 118km
Updated: 17/01/2018 18:25
Mostly cloudy
Mostly cloudy
 Wind from W
Wind: W 24 km/h
Temperature: 4°C
Wind Chill: -1°C
Dew Point: 1°C
Humidity: 81%
Barometer: 1000 hPa
Clouds: Mostly cloudy
Visibility: 10 km
Cloud details: Few Clouds 457 m
Partly cloudy 1311 m
Mostly cloudy 1524 m
2018/01/17 17:25 EHLW 171725Z AUTO 28013KT 240V310 9999 FEW015CB SCT043 BKN050 04/01 Q1000 BLU 27015G25KT 9999 SCT020 TEMPO 30020G35KT 4500 SHRA FEW012 SCT015CB BKN020
EBBL - Kleine-Brogel(Ba, Belgium
Distance from station: SSE 121km
Updated: 17/01/2018 18:25
Partly cloudy
Partly cloudy
 Wind from WSW
Wind: WSW 20 km/h
Temperature: 4°C
Wind Chill: -1°C
Dew Point: 0°C
Humidity: 75%
Barometer: 1008 hPa
Clouds: Partly cloudy
Visibility: 10 km
Cloud details: Few Clouds 1067 m
Partly cloudy 1463 m
2018/01/17 17:25 EBBL 171725Z AUTO 25011KT 9999 FEW035/// SCT048/// 04/M00 Q1008 BLU
EHPG - P11-B Sea, Netherlands
Distance from station: W 121km
Updated: 17/01/2018 18:25
Few Clouds
Few Clouds
 Wind from W
Wind: W 69 km/h
Temperature: 7°C
Wind Chill: 1°C
Dew Point: 0°C
Humidity: 61%
Barometer: 1003 hPa
Clouds: Few Clouds
Visibility: 10 km
Cloud details: Few Clouds 975 m
2018/01/17 17:25 EHPG 171725Z AUTO 26037KT 160V330 9999 FEW032 07/00 Q1003 W///H///
 
EBAW - Antwerp/Deurne, Belgium
Distance from station: SSW 123km
Updated: 17/01/2018 18:20
Mostly cloudy
Mostly cloudy
 Wind from WSW
Wind: WSW 19 km/h
Temperature: 6°C
Wind Chill: 3°C
Dew Point: 0°C
Humidity: 66%
Barometer: 1008 hPa
Clouds: Mostly cloudy
Visibility: 10 km
Cloud details: Few Clouds 1067 m
Mostly cloudy 1463 m
2018/01/17 17:20 EBAW 171720Z 25010KT 9999 FEW035 BKN048 06/00 Q1008 NOSIG
EHSA - Euro Platform, Netherlands
Distance from station: W 127km
Updated: 17/01/2018 18:25

 Wind from W
Wind: W 61 km/h
Temperature: 7°C
Wind Chill: 1°C
Dew Point: 1°C
Humidity: 66%
Barometer: 1005 hPa
Visibility: 10 km
2018/01/17 17:25 EHSA 171725Z AUTO 26033KT 9999 ///////// 07/01 Q1005 W07/H34
EBDT - Schaffen, Belgium
Distance from station: S 135km
Updated: 17/01/2018 18:25
Partly cloudy
Partly cloudy
 Wind from WSW
Wind: WSW 15 km/h
Temperature: 5°C
Wind Chill: 2°C
Dew Point: -1°C
Humidity: 66%
Barometer: 1008 hPa
Clouds: Partly cloudy
Visibility: 10 km
Cloud details: Partly cloudy 1676 m
2018/01/17 17:25 EBDT 171725Z AUTO 24008KT 9999 SCT055/// 05/M01 Q1008 BLU
 
EHFS - Vlissingen, Netherlands
Distance from station: SW 135km
Updated: 17/01/2018 18:25
Mostly cloudy
Mostly cloudy
 Wind from W
Wind: W 39 km/h
Temperature: 7°C
Wind Chill: 2°C
Dew Point: 1°C
Humidity: 66%
Barometer: 1007 hPa
Clouds: Mostly cloudy
Visibility: 10 km
Cloud details: Few Clouds 1067 m
Mostly cloudy 1189 m
Mostly cloudy 1341 m
2018/01/17 17:25 EHFS 171725Z AUTO 27021KT 9999 FEW035/// BKN039/// BKN044/// 07/01 Q1007 W///H///
EHGG - Groningen/Eelde, Netherlands
Distance from station: NE 139km
Updated: 17/01/2018 18:25
Few Clouds
Few Clouds
 Wind from W
Wind: W 13 km/h
Temperature: 3°C
Wind Chill: -1°C
Dew Point: 1°C
Humidity: 87%
Barometer: 1000 hPa
Clouds: Few Clouds
Visibility: 10 km
Cloud details: Few Clouds 457 m
2018/01/17 17:25 EHGG 171725Z AUTO 27007KT 230V310 9999 FEW015CB 03/01 Q1000 R23/290095 TEMPO 4000 SHRAGSSN SCT012CB